createdAt,value
2018-08-06T00:00:49.363Z,2.87
2018-08-06T00:03:22.865Z,3.07
2018-08-06T00:05:53.474Z,2.67
2018-08-06T00:08:24.467Z,3.20
2018-08-06T00:10:54.869Z,3.07
2018-08-06T00:13:26.431Z,3.03
2018-08-06T00:15:56.899Z,3.07
2018-08-06T00:18:27.854Z,3.30
2018-08-06T00:20:57.817Z,2.73
2018-08-06T00:23:27.738Z,2.60
2018-08-06T00:25:58.168Z,2.87
2018-08-06T00:28:28.114Z,2.57
2018-08-06T00:30:58.170Z,2.70
2018-08-06T00:33:28.182Z,3.07
2018-08-06T00:35:58.890Z,3.03
2018-08-06T00:38:28.882Z,3.27
2018-08-06T00:40:58.935Z,3.00
2018-08-06T00:43:28.986Z,3.00
2018-08-06T00:45:59.014Z,2.90
2018-08-06T00:48:29.433Z,2.80
2018-08-06T00:50:59.414Z,2.80
2018-08-06T00:53:29.358Z,2.90
2018-08-06T00:55:59.262Z,2.90
2018-08-06T00:58:29.738Z,2.60
2018-08-06T01:00:59.731Z,2.70
2018-08-06T01:03:29.694Z,3.53
2018-08-06T01:05:59.843Z,3.03
2018-08-06T01:08:29.778Z,3.43
2018-08-06T01:10:59.760Z,2.53
2018-08-06T01:13:30.393Z,2.73
2018-08-06T01:16:00.306Z,2.63
2018-08-06T01:18:30.289Z,2.70
2018-08-06T01:21:00.541Z,2.90
2018-08-06T01:23:31.471Z,2.53
2018-08-06T01:26:01.493Z,2.53
2018-08-06T01:28:31.769Z,2.80
2018-08-06T01:31:01.772Z,2.73
2018-08-06T01:33:31.770Z,2.70
2018-08-06T01:36:02.190Z,2.50
2018-08-06T01:38:32.188Z,2.80
2018-08-06T01:41:02.280Z,2.67
2018-08-06T01:43:32.980Z,3.10
2018-08-06T01:46:02.935Z,2.90
2018-08-06T01:48:32.900Z,2.93
2018-08-06T01:51:03.278Z,3.23
2018-08-06T01:53:33.255Z,2.60
2018-08-06T01:56:03.380Z,2.70
2018-08-06T01:58:33.631Z,2.83
2018-08-06T02:01:03.569Z,3.00
2018-08-06T02:03:33.510Z,2.40
2018-08-06T02:06:03.506Z,2.90
2018-08-06T02:08:33.433Z,2.77
2018-08-06T02:11:03.356Z,2.60
2018-08-06T02:13:35.658Z,2.63
2018-08-06T02:16:05.658Z,2.80
2018-08-06T02:18:35.631Z,2.87
2018-08-06T02:21:06.140Z,2.80
2018-08-06T02:23:36.047Z,2.97
2018-08-06T02:26:07.596Z,3.00
2018-08-06T02:28:37.515Z,2.50
2018-08-06T02:31:07.695Z,2.80
2018-08-06T02:33:37.693Z,2.87
2018-08-06T02:36:08.097Z,2.90
2018-08-06T02:38:38.014Z,2.70
2018-08-06T02:41:07.919Z,3.00
2018-08-06T02:43:38.489Z,2.90
2018-08-06T02:46:08.510Z,2.93
2018-08-06T02:48:38.486Z,2.43
2018-08-06T02:51:08.519Z,3.13
2018-08-06T02:53:38.530Z,2.63
2018-08-06T02:56:08.790Z,2.90
2018-08-06T02:58:39.090Z,2.90
2018-08-06T03:01:09.001Z,2.80
2018-08-06T03:03:38.922Z,2.77
2018-08-06T03:06:08.850Z,2.87
2018-08-06T03:08:38.804Z,2.83
2018-08-06T03:11:08.717Z,2.47
2018-08-06T03:13:39.021Z,2.80
2018-08-06T03:16:09.034Z,2.70
2018-08-06T03:18:39.055Z,2.63
2018-08-06T03:21:09.083Z,2.77
2018-08-06T03:23:39.150Z,2.63
2018-08-06T03:26:09.143Z,3.13
2018-08-06T03:28:39.370Z,2.70
2018-08-06T03:31:09.931Z,2.97
2018-08-06T03:33:39.907Z,3.30
2018-08-06T03:36:10.570Z,2.70
2018-08-06T03:38:40.557Z,3.20
2018-08-06T03:41:10.534Z,2.87
2018-08-06T03:43:40.898Z,2.63
2018-08-06T03:46:14.850Z,2.77
2018-08-06T03:48:44.916Z,2.57
2018-08-06T03:51:14.918Z,2.47
2018-08-06T03:53:45.044Z,2.63
2018-08-06T03:56:18.942Z,2.83
2018-08-06T03:58:51.410Z,3.13
2018-08-06T04:01:21.315Z,2.70
2018-08-06T04:03:51.254Z,3.10
2018-08-06T04:06:21.590Z,2.97
2018-08-06T04:08:51.525Z,2.70
2018-08-06T04:11:22.443Z,2.70
2018-08-06T04:13:52.432Z,2.90
2018-08-06T04:16:22.639Z,2.90
2018-08-06T04:18:52.866Z,2.77
2018-08-06T04:21:22.824Z,2.93
2018-08-06T04:23:53.108Z,2.80
2018-08-06T04:26:23.057Z,2.60
2018-08-06T04:28:53.009Z,2.77
2018-08-06T04:31:23.058Z,2.80
2018-08-06T04:33:54.080Z,3.20
2018-08-06T04:36:24.042Z,2.73
2018-08-06T04:38:53.973Z,2.87
2018-08-06T04:41:24.287Z,2.90
2018-08-06T04:43:54.213Z,2.70
2018-08-06T04:46:24.147Z,2.90
2018-08-06T04:48:54.406Z,2.63
2018-08-06T04:51:24.563Z,3.03
2018-08-06T04:53:55.537Z,2.70
2018-08-06T04:56:25.838Z,3.10
2018-08-06T04:59:00.168Z,3.07
2018-08-06T05:01:32.430Z,3.10
2018-08-06T05:04:06.786Z,2.87
2018-08-06T05:06:39.172Z,3.10
2018-08-06T05:09:11.386Z,2.70
2018-08-06T05:11:42.514Z,3.00
2018-08-06T05:14:12.443Z,2.90
2018-08-06T05:16:42.382Z,3.27
2018-08-06T05:19:12.676Z,2.93
2018-08-06T05:21:42.623Z,2.90
2018-08-06T05:24:12.606Z,2.70
2018-08-06T05:26:42.553Z,2.53
2018-08-06T05:29:12.528Z,2.60
2018-08-06T05:31:42.847Z,2.70
2018-08-06T05:34:12.946Z,2.37
2018-08-06T05:36:43.376Z,2.90
2018-08-06T05:39:13.445Z,2.50
2018-08-06T05:41:44.147Z,2.40
2018-08-06T05:44:15.146Z,2.47
2018-08-06T05:47:59.485Z,2.30
2018-08-06T05:50:29.963Z,2.47
2018-08-06T05:52:59.997Z,2.23
2018-08-06T05:55:33.548Z,2.57
2018-08-06T05:58:04.299Z,2.50
2018-08-06T06:00:34.210Z,2.37
2018-08-06T06:03:05.110Z,2.30
2018-08-06T06:05:36.123Z,2.17
2018-08-06T06:08:06.489Z,2.10
2018-08-06T06:10:36.496Z,2.07
2018-08-06T06:13:06.626Z,2.10
2018-08-06T06:15:38.966Z,1.90
2018-08-06T06:18:08.902Z,1.97
2018-08-06T06:20:38.819Z,2.10
2018-08-06T06:23:09.047Z,2.20
2018-08-06T06:25:41.315Z,2.00
2018-08-06T06:28:17.362Z,2.03
2018-08-06T06:30:52.049Z,2.03
2018-08-06T06:33:22.031Z,1.77
2018-08-06T06:36:06.374Z,2.03
2018-08-06T06:38:37.137Z,2.03
2018-08-06T06:41:08.706Z,2.20
2018-08-06T06:43:40.821Z,1.77
2018-08-06T06:46:10.926Z,2.03
2018-08-06T06:48:40.925Z,2.10
2018-08-06T06:51:10.942Z,1.90
2018-08-06T06:53:40.834Z,2.10
2018-08-06T06:56:10.770Z,2.13
2018-08-06T06:58:40.761Z,1.83
2018-08-06T07:01:12.504Z,1.73
2018-08-06T07:04:01.137Z,1.80
2018-08-06T07:06:32.178Z,1.70
2018-08-06T07:09:02.143Z,2.20
2018-08-06T07:11:32.043Z,2.10
2018-08-06T07:14:01.978Z,1.80
2018-08-06T07:16:32.589Z,1.83
2018-08-06T07:19:06.769Z,2.10
2018-08-06T07:21:37.750Z,1.80
2018-08-06T07:24:09.428Z,1.73
2018-08-06T07:26:40.675Z,1.90
2018-08-06T07:29:11.410Z,1.90
2018-08-06T07:31:43.473Z,2.07
2018-08-06T07:34:14.034Z,2.33
2018-08-06T07:36:44.033Z,2.00
2018-08-06T07:39:14.927Z,1.97
2018-08-06T07:41:45.749Z,2.50
2018-08-06T07:44:15.643Z,2.33
2018-08-06T07:46:47.096Z,2.07
2018-08-06T07:49:18.224Z,2.13
2018-08-06T07:51:49.234Z,2.00
2018-08-06T07:54:19.839Z,2.00
2018-08-06T07:56:49.741Z,2.27
2018-08-06T07:59:19.745Z,2.00
2018-08-06T08:01:50.250Z,1.80
2018-08-06T08:04:20.670Z,2.10
2018-08-06T08:06:51.827Z,1.70
2018-08-06T08:09:22.098Z,2.23
2018-08-06T08:11:52.900Z,1.90
2018-08-06T08:14:22.886Z,1.80
2018-08-06T08:16:52.902Z,2.10
2018-08-06T08:19:23.834Z,2.00
2018-08-06T08:21:53.906Z,1.70
2018-08-06T08:24:23.826Z,1.90
2018-08-06T08:26:54.866Z,1.50
2018-08-06T08:29:24.803Z,1.77
2018-08-06T08:31:54.808Z,1.80
2018-08-06T08:34:26.511Z,1.73
2018-08-06T08:36:57.383Z,2.10
2018-08-06T08:39:28.939Z,1.80
2018-08-06T08:42:02.347Z,1.97
2018-08-06T08:44:32.725Z,2.00
2018-08-06T08:47:02.700Z,1.77
2018-08-06T08:49:32.658Z,2.27
2018-08-06T08:52:03.592Z,1.70
2018-08-06T08:54:33.542Z,1.80
2018-08-06T08:57:04.402Z,1.60
2018-08-06T08:59:35.854Z,1.90
2018-08-06T09:02:06.659Z,1.90
2018-08-06T09:04:36.802Z,1.70
2018-08-06T09:07:07.577Z,1.63
2018-08-06T09:09:38.762Z,1.63
2018-08-06T09:12:11.236Z,1.50
2018-08-06T09:14:42.827Z,1.90
2018-08-06T09:17:15.859Z,1.90
2018-08-06T09:19:46.972Z,2.00
2018-08-06T09:22:17.012Z,1.73
2018-08-06T09:24:47.019Z,1.67
2018-08-06T09:27:17.858Z,1.70
2018-08-06T09:29:51.296Z,1.60
2018-08-06T09:32:21.237Z,1.63
2018-08-06T09:34:51.262Z,1.70
2018-08-06T09:37:22.153Z,1.70
2018-08-06T09:39:53.782Z,1.73
2018-08-06T09:42:26.569Z,1.87
2018-08-06T09:44:56.574Z,1.80
2018-08-06T09:47:28.407Z,1.80
2018-08-06T09:50:00.816Z,1.90
2018-08-06T09:52:32.431Z,1.67
2018-08-06T09:55:11.737Z,2.10
2018-08-06T09:57:43.202Z,1.73
2018-08-06T10:00:21.640Z,1.87
2018-08-06T10:02:52.550Z,1.90
2018-08-06T10:05:23.477Z,1.60
2018-08-06T10:07:56.359Z,1.60
2018-08-06T10:10:26.841Z,1.73
2018-08-06T10:12:56.802Z,1.90
2018-08-06T10:15:27.193Z,1.50
2018-08-06T10:18:04.439Z,1.60
2018-08-06T10:20:42.461Z,1.70
2018-08-06T10:23:26.243Z,1.40
2018-08-06T10:26:06.698Z,1.60
2018-08-06T10:28:43.634Z,1.60
2018-08-06T10:31:14.838Z,1.97
2018-08-06T10:33:46.796Z,1.80
2018-08-06T10:36:26.573Z,1.57
2018-08-06T10:39:04.109Z,1.60
2018-08-06T10:41:41.938Z,1.50
2018-08-06T10:44:14.897Z,1.60
2018-08-06T10:46:44.853Z,1.60
2018-08-06T10:49:18.627Z,1.27
2018-08-06T10:52:03.167Z,1.73
2018-08-06T10:57:40.433Z,1.87
2018-08-06T11:00:19.954Z,1.50
2018-08-06T11:02:53.158Z,1.40
2018-08-06T11:05:25.058Z,1.80
2018-08-06T11:07:58.406Z,1.50
2018-08-06T11:10:31.051Z,1.60
2018-08-06T11:13:04.003Z,1.77
2018-08-06T11:15:37.159Z,1.90
2018-08-06T11:18:07.710Z,1.83
2018-08-06T11:20:38.479Z,1.50
2018-08-06T11:23:10.145Z,1.57
2018-08-06T11:25:40.142Z,1.50
2018-08-06T11:28:10.908Z,1.63
2018-08-06T11:30:43.637Z,1.70
2018-08-06T11:33:15.013Z,1.20
2018-08-06T11:35:46.303Z,1.50
2018-08-06T11:38:16.669Z,1.97
2018-08-06T11:40:49.991Z,1.63
2018-08-06T11:43:21.370Z,1.60
2018-08-06T11:45:52.387Z,1.80
2018-08-06T11:48:22.418Z,1.93
2018-08-06T11:51:01.399Z,1.50
2018-08-06T11:53:31.564Z,1.90
2018-08-06T11:56:02.446Z,1.80
2018-08-06T11:58:43.314Z,1.70
2018-08-06T12:01:17.193Z,1.70
2018-08-06T12:03:47.390Z,1.60
2018-08-06T12:06:17.985Z,1.80
2018-08-06T12:08:48.722Z,1.70
2018-08-06T12:11:42.102Z,1.50
2018-08-06T12:14:20.146Z,1.50
2018-08-06T12:16:50.878Z,1.80
2018-08-06T12:19:21.852Z,1.47
2018-08-06T12:21:53.690Z,1.40
2018-08-06T12:24:23.860Z,1.70
2018-08-06T12:26:54.624Z,1.40
2018-08-06T12:29:26.913Z,1.80
2018-08-06T12:31:58.859Z,1.67
2018-08-06T12:34:29.105Z,1.50
2018-08-06T12:37:01.067Z,1.40
2018-08-06T12:39:32.234Z,1.50
2018-08-06T12:42:07.266Z,2.07
2018-08-06T12:44:38.100Z,1.70
2018-08-06T12:47:10.654Z,1.50
2018-08-06T12:49:43.512Z,1.60
2018-08-06T12:52:13.718Z,1.70
2018-08-06T12:54:43.807Z,1.50
2018-08-06T12:57:13.800Z,1.50
2018-08-06T12:59:46.074Z,1.57
2018-08-06T13:02:17.754Z,1.50
2018-08-06T13:05:09.315Z,1.60
2018-08-06T13:07:45.309Z,1.80
2018-08-06T13:10:16.393Z,1.70
2018-08-06T13:12:48.188Z,1.40
2018-08-06T13:15:19.363Z,1.73
2018-08-06T13:17:51.142Z,1.43
2018-08-06T13:20:26.769Z,1.70
2018-08-06T13:22:57.288Z,1.43
2018-08-06T13:25:30.482Z,1.77
2018-08-06T13:28:01.825Z,1.63
2018-08-06T13:30:33.681Z,1.40
2018-08-06T13:33:04.375Z,1.53
2018-08-06T13:35:34.452Z,1.43
2018-08-06T13:38:08.618Z,1.47
2018-08-06T13:40:39.663Z,1.50
2018-08-06T13:43:11.289Z,1.67
2018-08-06T13:45:46.582Z,1.53
2018-08-06T13:48:18.524Z,1.97
2018-08-06T13:50:49.303Z,1.60
2018-08-06T13:53:19.818Z,1.40
2018-08-06T13:55:49.845Z,1.60
2018-08-06T13:58:21.700Z,1.80
2018-08-06T14:00:52.126Z,1.60
2018-08-06T14:03:22.156Z,1.80
2018-08-06T14:05:52.887Z,1.77
2018-08-06T14:08:24.223Z,1.67
2018-08-06T14:10:54.166Z,1.57
2018-08-06T14:13:25.809Z,1.60
2018-08-06T14:15:56.408Z,1.70
2018-08-06T14:18:28.622Z,1.60
2018-08-06T14:20:59.311Z,2.10
2018-08-06T14:23:30.628Z,1.60
2018-08-06T14:26:01.513Z,1.70
2018-08-06T14:28:31.503Z,1.83
2018-08-06T14:31:02.173Z,1.43
2018-08-06T14:33:35.878Z,1.60
2018-08-06T14:36:08.766Z,2.07
2018-08-06T14:38:40.001Z,1.83
2018-08-06T14:41:11.282Z,1.70
2018-08-06T14:43:43.372Z,1.93
2018-08-06T14:46:13.893Z,1.87
2018-08-06T14:48:45.954Z,1.60
2018-08-06T14:51:15.954Z,1.37
2018-08-06T14:53:47.342Z,1.83
2018-08-06T14:56:18.334Z,1.73
2018-08-06T14:58:48.257Z,1.50
2018-08-06T15:01:18.625Z,1.67
2018-08-06T15:03:48.562Z,1.60
2018-08-06T15:06:18.621Z,1.80
2018-08-06T15:08:49.610Z,1.50
2018-08-06T15:11:24.424Z,1.50
2018-08-06T15:16:38.311Z,1.47
2018-08-06T15:19:08.902Z,1.70
2018-08-06T15:21:39.910Z,1.40
2018-08-06T15:24:11.291Z,1.63
2018-08-06T15:26:41.378Z,1.37
2018-08-06T15:29:12.701Z,1.63
2018-08-06T15:31:46.213Z,2.03
2018-08-06T15:34:17.057Z,1.70
2018-08-06T15:36:50.217Z,1.70
2018-08-06T15:39:21.029Z,1.70
2018-08-06T15:41:51.920Z,1.70
2018-08-06T15:44:22.778Z,1.80
2018-08-06T15:46:53.653Z,1.67
2018-08-06T15:49:23.765Z,1.40
2018-08-06T15:52:02.476Z,1.70
2018-08-06T15:54:33.553Z,1.90
2018-08-06T15:59:42.534Z,1.50
2018-08-06T16:02:15.734Z,1.57
2018-08-06T16:04:50.316Z,1.57
2018-08-06T16:07:22.531Z,1.60
2018-08-06T16:09:54.978Z,1.47
2018-08-06T16:12:25.378Z,1.70
2018-08-06T16:14:56.013Z,1.60
2018-08-06T16:17:28.281Z,1.83
2018-08-06T16:20:03.141Z,1.67
2018-08-06T16:22:39.089Z,1.60
2018-08-06T16:25:12.134Z,1.40
2018-08-06T16:27:42.471Z,1.70
2018-08-06T16:30:30.354Z,1.60
2018-08-06T16:33:05.320Z,1.70
2018-08-06T16:35:39.440Z,1.70
2018-08-06T16:38:10.491Z,1.80
2018-08-06T16:40:42.050Z,1.70
2018-08-06T16:43:15.236Z,1.60
2018-08-06T16:45:46.810Z,1.70
2018-08-06T16:48:17.774Z,1.63
2018-08-06T16:50:50.084Z,1.70
2018-08-06T16:53:20.575Z,1.90
2018-08-06T16:55:50.879Z,1.80
2018-08-06T16:58:20.877Z,1.70
2018-08-06T17:00:51.446Z,2.00
2018-08-06T17:03:23.863Z,2.10
2018-08-06T17:05:57.570Z,1.77
2018-08-06T17:08:30.720Z,1.80
2018-08-06T17:11:06.387Z,1.80
2018-08-06T17:13:40.346Z,1.57
2018-08-06T17:16:13.861Z,1.60
2018-08-06T17:18:46.408Z,1.73
2018-08-06T17:21:20.394Z,1.80
2018-08-06T17:23:55.284Z,1.60
2018-08-06T17:26:26.302Z,1.70
2018-08-06T17:28:58.767Z,1.70
2018-08-06T17:31:46.763Z,1.63
2018-08-06T17:34:17.485Z,1.53
2018-08-06T17:36:49.942Z,1.67
2018-08-06T17:39:21.571Z,2.00
2018-08-06T17:41:53.166Z,1.83
2018-08-06T17:44:26.382Z,1.60
2018-08-06T17:46:58.737Z,2.00
2018-08-06T17:49:29.244Z,1.87
2018-08-06T17:52:02.180Z,1.90
2018-08-06T17:54:35.523Z,1.80
2018-08-06T17:57:06.721Z,1.77
2018-08-06T17:59:41.041Z,2.00
2018-08-06T18:02:15.286Z,1.97
2018-08-06T18:04:45.773Z,2.00
2018-08-06T18:07:18.104Z,1.70
2018-08-06T18:09:50.754Z,1.90
2018-08-06T18:12:21.402Z,2.00
2018-08-06T18:14:52.546Z,1.73
2018-08-06T18:17:25.208Z,1.80
2018-08-06T18:19:57.403Z,2.20
2018-08-06T18:22:31.877Z,2.20
2018-08-06T18:25:04.649Z,1.90
2018-08-06T18:27:35.319Z,2.00
2018-08-06T18:30:14.398Z,2.00
2018-08-06T18:32:44.972Z,1.90
2018-08-06T18:35:17.400Z,2.17
2018-08-06T18:37:47.437Z,1.90
2018-08-06T18:40:18.784Z,2.03
2018-08-06T18:42:48.717Z,2.13
2018-08-06T18:45:20.679Z,1.90
2018-08-06T18:47:52.684Z,2.13
2018-08-06T18:50:23.216Z,1.90
2018-08-06T18:52:53.270Z,2.17
2018-08-06T18:55:25.497Z,2.17
2018-08-06T18:57:57.058Z,2.10
2018-08-06T19:00:27.973Z,2.33
2018-08-06T19:03:00.535Z,2.10
2018-08-06T19:05:31.040Z,2.03
2018-08-06T19:08:03.521Z,2.10
2018-08-06T19:10:34.475Z,1.93
2018-08-06T19:13:09.476Z,2.33
2018-08-06T19:15:41.407Z,1.80
2018-08-06T19:18:17.175Z,2.20
2018-08-06T19:20:48.290Z,2.03
2018-08-06T19:23:19.830Z,1.90
2018-08-06T19:25:50.523Z,1.93
2018-08-06T19:28:20.458Z,2.17
2018-08-06T19:30:58.279Z,2.43
2018-08-06T19:33:30.294Z,2.03
2018-08-06T19:36:03.666Z,1.80
2018-08-06T19:38:34.326Z,2.20
2018-08-06T19:41:06.035Z,1.93
2018-08-06T19:43:39.228Z,2.13
2018-08-06T19:46:10.446Z,2.10
2018-08-06T19:48:42.261Z,2.00
2018-08-06T19:51:14.246Z,1.80
2018-08-06T19:53:45.997Z,1.97
2018-08-06T19:56:19.543Z,2.17
2018-08-06T19:58:50.587Z,2.00
2018-08-06T20:01:21.922Z,1.97
2018-08-06T20:03:53.224Z,2.20
2018-08-06T20:06:23.549Z,1.93
2018-08-06T20:08:54.396Z,2.17
2018-08-06T20:11:25.333Z,1.97
2018-08-06T20:13:58.229Z,1.87
2018-08-06T20:16:30.504Z,2.13
2018-08-06T20:19:04.396Z,2.30
2018-08-06T20:21:36.927Z,2.10
2018-08-06T20:24:13.375Z,2.10
2018-08-06T20:26:43.957Z,2.10
2018-08-06T20:29:17.805Z,2.00
2018-08-06T20:31:48.257Z,2.03
2018-08-06T20:34:18.190Z,2.30
2018-08-06T20:36:48.380Z,2.10
2018-08-06T20:39:20.340Z,1.90
2018-08-06T20:41:50.910Z,1.93
2018-08-06T20:44:21.592Z,1.70
2018-08-06T20:46:53.822Z,1.50
2018-08-06T20:49:24.914Z,1.50
2018-08-06T20:51:55.848Z,1.83
2018-08-06T20:54:28.627Z,1.60
2018-08-06T20:56:58.654Z,1.40
2018-08-06T20:59:29.829Z,1.60
2018-08-06T21:02:02.301Z,1.60
2018-08-06T21:04:33.978Z,1.60
2018-08-06T21:07:06.534Z,1.93
2018-08-06T21:09:37.958Z,1.40
2018-08-06T21:12:11.624Z,1.60
2018-08-06T21:14:44.054Z,1.60
2018-08-06T21:17:14.409Z,1.67
2018-08-06T21:19:45.776Z,1.53
2018-08-06T21:22:16.833Z,1.80
2018-08-06T21:24:46.760Z,1.70
2018-08-06T21:27:17.755Z,1.53
2018-08-06T21:29:49.891Z,1.53
2018-08-06T21:32:19.872Z,1.60
2018-08-06T21:34:51.391Z,1.60
2018-08-06T21:37:21.385Z,1.53
2018-08-06T21:39:54.273Z,2.00
2018-08-06T21:42:25.770Z,1.57
2018-08-06T21:44:55.789Z,1.50
2018-08-06T21:47:26.244Z,1.30
2018-08-06T21:49:56.374Z,1.50
2018-08-06T21:52:28.512Z,1.90
2018-08-06T21:54:59.065Z,1.50
2018-08-06T21:57:29.097Z,1.80
2018-08-06T22:00:00.962Z,1.70
2018-08-06T22:02:32.977Z,1.57
2018-08-06T22:05:06.797Z,1.47
2018-08-06T22:07:36.757Z,1.47
2018-08-06T22:10:08.726Z,1.30
2018-08-06T22:12:39.238Z,1.50
2018-08-06T22:15:11.590Z,1.63
2018-08-06T22:17:41.610Z,1.50
2018-08-06T22:20:12.352Z,1.50
2018-08-06T22:22:42.363Z,1.60
2018-08-06T22:25:13.147Z,1.70
2018-08-06T22:27:44.154Z,1.47
2018-08-06T22:30:14.715Z,1.40
2018-08-06T22:32:46.298Z,1.70
2018-08-06T22:35:17.315Z,1.40
2018-08-06T22:37:47.245Z,1.40
2018-08-06T22:40:17.342Z,1.50
2018-08-06T22:42:48.237Z,1.40
2018-08-06T22:45:18.209Z,1.90
2018-08-06T22:47:48.225Z,1.50
2018-08-06T22:50:18.596Z,1.90
2018-08-06T22:52:49.646Z,1.67
2018-08-06T22:55:19.625Z,1.60
2018-08-06T22:57:50.290Z,1.70
2018-08-06T23:00:21.775Z,1.50
2018-08-06T23:02:54.814Z,1.43
2018-08-06T23:05:24.962Z,1.53
2018-08-06T23:07:56.367Z,2.10
2018-08-06T23:10:26.344Z,1.43
2018-08-06T23:12:56.275Z,1.40
2018-08-06T23:15:27.930Z,1.33
2018-08-06T23:17:57.961Z,1.40
2018-08-06T23:20:27.900Z,1.57
2018-08-06T23:22:57.791Z,1.40
2018-08-06T23:25:29.229Z,1.43
2018-08-06T23:28:00.082Z,1.80
2018-08-06T23:30:30.051Z,1.57
2018-08-06T23:33:00.257Z,1.50
2018-08-06T23:35:31.855Z,1.57
2018-08-06T23:38:01.815Z,1.30
2018-08-06T23:40:31.773Z,1.57
2018-08-06T23:43:02.269Z,1.60
2018-08-06T23:45:32.222Z,1.60
2018-08-06T23:48:02.201Z,1.50
2018-08-06T23:50:33.653Z,1.47
2018-08-06T23:53:04.685Z,1.47
2018-08-06T23:55:36.177Z,1.60
2018-08-06T23:58:07.448Z,1.70
